createdAt,value
2022-09-10T00:00:12.106Z,76.34
2022-09-10T00:05:21.421Z,76.35
2022-09-10T00:10:31.671Z,76.42
2022-09-10T00:15:48.189Z,76.57
2022-09-10T00:21:00.219Z,76.61
2022-09-10T00:26:22.855Z,76.76
2022-09-10T00:31:39.449Z,76.77
2022-09-10T00:36:50.098Z,76.78
2022-09-10T00:42:00.477Z,76.81
2022-09-10T00:47:07.711Z,77.08
2022-09-10T00:52:16.269Z,77.06
2022-09-10T00:57:29.285Z,77.11
2022-09-10T01:02:37.680Z,77.03
2022-09-10T01:07:57.271Z,77.13
2022-09-10T01:13:26.433Z,77.13
2022-09-10T01:18:46.382Z,77.37
2022-09-10T01:24:34.226Z,77.33
2022-09-10T01:29:53.643Z,77.36
2022-09-10T01:35:18.150Z,77.33
2022-09-10T01:40:36.305Z,77.39
2022-09-10T01:46:20.337Z,77.60
2022-09-10T01:51:50.563Z,77.59
2022-09-10T01:57:11.062Z,77.60
2022-09-10T02:02:43.466Z,77.54
2022-09-10T02:08:00.426Z,77.47
2022-09-10T02:13:30.065Z,77.53
2022-09-10T02:19:02.365Z,77.74
2022-09-10T02:24:15.434Z,77.66
2022-09-10T02:29:44.216Z,77.45
2022-09-10T02:34:55.398Z,77.53
2022-09-10T02:40:12.322Z,77.63
2022-09-10T02:45:24.451Z,77.56
2022-09-10T02:50:42.210Z,77.53
2022-09-10T02:55:51.074Z,77.76
2022-09-10T03:01:10.718Z,77.61
2022-09-10T03:06:30.070Z,77.83
2022-09-10T03:11:46.806Z,77.76
2022-09-10T03:16:54.185Z,77.84
2022-09-10T03:22:06.142Z,77.73
2022-09-10T03:27:25.509Z,78.04
2022-09-10T03:32:38.440Z,77.84
2022-09-10T03:37:56.397Z,77.91
2022-09-10T03:43:03.890Z,78.14
2022-09-10T03:48:14.598Z,78.01
2022-09-10T03:53:22.391Z,78.10
2022-09-10T03:58:32.523Z,78.20
2022-09-10T04:03:45.726Z,78.11
2022-09-10T04:09:04.916Z,78.18
2022-09-10T04:14:32.594Z,78.32
2022-09-10T04:19:42.644Z,78.35
2022-09-10T04:25:00.757Z,78.17
2022-09-10T04:30:18.037Z,78.31
2022-09-10T04:35:36.084Z,78.52
2022-09-10T04:40:47.861Z,78.47
2022-09-10T04:45:59.396Z,78.47
2022-09-10T04:51:27.088Z,78.50
2022-09-10T04:56:44.502Z,78.69
2022-09-10T05:02:13.120Z,78.61
2022-09-10T05:07:31.987Z,78.61
2022-09-10T05:12:42.639Z,78.68
2022-09-10T05:18:11.202Z,78.66
2022-09-10T05:23:31.523Z,78.56
2022-09-10T05:28:40.902Z,78.80
2022-09-10T05:33:49.525Z,78.84
2022-09-10T05:38:57.280Z,78.82
2022-09-10T05:44:03.567Z,78.86
2022-09-10T05:49:21.058Z,78.98
2022-09-10T05:54:28.312Z,79.01
2022-09-10T05:59:44.992Z,79.01
2022-09-10T06:04:53.316Z,79.03
2022-09-10T06:10:03.796Z,79.19
2022-09-10T06:15:36.535Z,78.98
2022-09-10T06:20:44.188Z,79.03
2022-09-10T06:26:05.393Z,79.16
2022-09-10T06:31:19.887Z,79.01
2022-09-10T06:36:43.860Z,78.93
2022-09-10T06:41:57.011Z,78.87
2022-09-10T06:53:22.331Z,79.03
2022-09-10T06:58:37.011Z,78.97
2022-09-10T07:03:48.639Z,79.13
2022-09-10T07:08:58.918Z,79.09
2022-09-10T07:14:15.042Z,78.83
2022-09-10T07:19:23.431Z,78.92
2022-09-10T07:24:34.431Z,79.00
2022-09-10T07:29:53.305Z,78.88
2022-09-10T07:35:07.679Z,79.11
2022-09-10T07:40:15.575Z,78.99
2022-09-10T07:45:23.720Z,78.79
2022-09-10T07:50:31.541Z,78.99
2022-09-10T07:55:40.237Z,79.10
2022-09-10T08:00:49.450Z,78.87
2022-09-10T08:06:03.392Z,78.68
2022-09-10T08:11:13.240Z,78.92
2022-09-10T08:16:24.285Z,78.66
2022-09-10T08:21:32.995Z,78.80
2022-09-10T08:26:40.880Z,78.88
2022-09-10T08:31:49.069Z,78.98
2022-09-10T08:37:19.222Z,78.81
2022-09-10T08:42:28.879Z,78.90
2022-09-10T08:47:57.073Z,78.68
2022-09-10T08:53:15.162Z,78.73
2022-09-10T08:58:25.633Z,78.84
2022-09-10T09:03:38.138Z,78.90
2022-09-10T09:08:50.239Z,78.73
2022-09-10T09:14:11.012Z,78.81
2022-09-10T09:19:28.525Z,78.93
2022-09-10T09:24:50.694Z,78.82
2022-09-10T09:30:02.676Z,78.78
2022-09-10T09:35:23.898Z,78.86
2022-09-10T09:40:38.173Z,78.64
2022-09-10T09:45:48.071Z,78.68
2022-09-10T09:51:01.498Z,78.70
2022-09-10T09:56:22.559Z,78.93
2022-09-10T10:01:30.265Z,78.63
2022-09-10T10:06:55.731Z,78.91
2022-09-10T10:12:14.559Z,78.49
2022-09-10T10:17:31.151Z,78.57
2022-09-10T10:22:41.536Z,78.42
2022-09-10T10:27:51.449Z,78.50
2022-09-10T10:33:00.360Z,78.69
2022-09-10T10:38:28.623Z,78.62
2022-09-10T10:43:43.004Z,78.89
2022-09-10T10:49:07.696Z,78.98
2022-09-10T10:54:48.909Z,79.07
2022-09-10T11:00:06.455Z,78.84
2022-09-10T11:05:32.004Z,78.79
2022-09-10T11:10:43.871Z,78.75
2022-09-10T11:15:59.623Z,79.00
2022-09-10T11:21:15.135Z,79.03
2022-09-10T11:26:26.783Z,79.08
2022-09-10T11:31:50.681Z,78.97
2022-09-10T11:37:19.645Z,79.11
2022-09-10T11:42:36.742Z,79.14
2022-09-10T11:48:11.548Z,79.04
2022-09-10T11:53:28.389Z,78.97
2022-09-10T11:58:54.738Z,78.98
2022-09-10T12:04:40.090Z,78.83
2022-09-10T12:09:58.471Z,78.91
2022-09-10T12:15:21.881Z,78.76
2022-09-10T12:20:33.416Z,78.88
2022-09-10T12:25:44.559Z,78.92
2022-09-10T12:31:07.249Z,78.94
2022-09-10T12:36:17.134Z,78.88
2022-09-10T12:41:58.204Z,78.76
2022-09-10T12:47:42.420Z,78.68
2022-09-10T12:53:05.455Z,78.64
2022-09-10T12:58:54.473Z,78.63
2022-09-10T13:04:03.212Z,78.68
2022-09-10T13:09:21.236Z,78.74
2022-09-10T13:14:37.021Z,78.63
2022-09-10T13:19:55.534Z,78.67
2022-09-10T13:25:28.454Z,78.74
2022-09-10T13:30:36.655Z,78.73
2022-09-10T13:36:15.437Z,78.73
2022-09-10T13:41:53.090Z,78.56
2022-09-10T13:47:11.858Z,78.57
2022-09-10T13:52:23.116Z,78.42
2022-09-10T13:57:32.849Z,78.46
2022-09-10T14:02:51.275Z,78.62
2022-09-10T14:08:05.342Z,78.41
2022-09-10T14:13:29.317Z,78.30
2022-09-10T14:18:51.696Z,78.26
2022-09-10T14:24:00.770Z,78.42
2022-09-10T14:29:26.565Z,78.51
2022-09-10T14:34:43.360Z,78.56
2022-09-10T14:39:53.646Z,78.51
2022-09-10T14:45:42.360Z,78.71
2022-09-10T14:50:49.842Z,78.67
2022-09-10T14:56:00.145Z,78.75
2022-09-10T15:01:09.496Z,78.60
2022-09-10T15:06:16.820Z,78.71
2022-09-10T15:11:29.236Z,78.59
2022-09-10T15:16:37.265Z,78.62
2022-09-10T15:22:04.719Z,78.97
2022-09-10T15:27:12.481Z,78.80
2022-09-10T15:32:18.528Z,78.70
2022-09-10T15:37:25.913Z,78.75
2022-09-10T15:42:44.120Z,78.73
2022-09-10T15:47:51.284Z,78.83
2022-09-10T15:52:58.472Z,79.06
2022-09-10T15:58:05.713Z,78.97
2022-09-10T16:03:15.590Z,78.97
2022-09-10T16:08:22.656Z,78.95
2022-09-10T16:13:29.835Z,79.09
2022-09-10T16:18:37.580Z,78.97
2022-09-10T16:23:48.753Z,78.88
2022-09-10T16:29:18.087Z,78.92
2022-09-10T16:34:25.291Z,79.01
2022-09-10T16:39:32.400Z,79.22
2022-09-10T16:44:41.342Z,79.21
2022-09-10T16:49:48.921Z,79.12
2022-09-10T16:54:57.661Z,79.12
2022-09-10T17:00:20.212Z,78.99
2022-09-10T17:05:29.079Z,79.03
2022-09-10T17:10:38.625Z,78.82
2022-09-10T17:15:49.158Z,79.15
2022-09-10T17:20:56.332Z,79.16
2022-09-10T17:26:12.067Z,79.19
2022-09-10T17:31:39.790Z,79.12
2022-09-10T17:36:52.724Z,79.32
2022-09-10T17:42:20.462Z,79.10
2022-09-10T17:47:27.077Z,79.04
2022-09-10T17:52:45.994Z,79.16
2022-09-10T17:57:53.439Z,79.24
2022-09-10T18:03:19.589Z,79.24
2022-09-10T18:08:31.931Z,79.16
2022-09-10T18:13:39.738Z,79.24
2022-09-10T18:18:55.612Z,79.14
2022-09-10T18:24:13.729Z,79.19
2022-09-10T18:29:41.815Z,79.22
2022-09-10T18:34:48.999Z,79.38
2022-09-10T18:39:56.261Z,79.38
2022-09-10T18:45:06.589Z,79.44
2022-09-10T18:50:16.897Z,79.30
2022-09-10T18:55:24.194Z,79.43
2022-09-10T19:00:32.904Z,79.60
2022-09-10T19:05:41.040Z,79.68
2022-09-10T19:10:48.458Z,79.49
2022-09-10T19:16:04.917Z,79.64
2022-09-10T19:21:15.244Z,79.60
2022-09-10T19:26:36.664Z,79.74
2022-09-10T19:31:50.334Z,79.69
2022-09-10T19:37:00.414Z,79.77
2022-09-10T19:42:08.190Z,79.52
2022-09-10T19:47:13.825Z,79.82
2022-09-10T19:52:25.842Z,79.68
2022-09-10T19:57:34.262Z,79.71
2022-09-10T20:02:42.085Z,79.76
2022-09-10T20:07:50.248Z,79.76
2022-09-10T20:13:00.431Z,79.84
2022-09-10T20:18:17.583Z,79.83
2022-09-10T20:23:25.652Z,79.96
2022-09-10T20:28:45.718Z,79.82
2022-09-10T20:34:09.271Z,79.81
2022-09-10T20:39:30.499Z,79.81
2022-09-10T20:44:58.268Z,79.89
2022-09-10T20:50:11.224Z,79.74
2022-09-10T20:55:23.699Z,79.97
2022-09-10T21:00:35.995Z,79.92
2022-09-10T21:05:49.956Z,79.66
2022-09-10T21:11:02.257Z,79.80
2022-09-10T21:16:15.254Z,79.78
2022-09-10T21:21:26.017Z,79.89
2022-09-10T21:26:43.664Z,80.18
2022-09-10T21:32:17.569Z,80.00
2022-09-10T21:37:25.415Z,79.87
2022-09-10T21:42:33.163Z,79.80
2022-09-10T21:47:43.734Z,79.78
2022-09-10T21:52:49.641Z,79.97
2022-09-10T21:58:06.770Z,79.50
2022-09-10T22:03:16.763Z,79.42
2022-09-10T22:08:32.900Z,79.62
2022-09-10T22:13:43.314Z,79.70
2022-09-10T22:18:51.249Z,79.75
2022-09-10T22:23:59.368Z,79.71
2022-09-10T22:29:19.255Z,79.59
2022-09-10T22:34:27.716Z,79.71
2022-09-10T22:39:37.338Z,79.60
2022-09-10T22:44:49.433Z,79.54
2022-09-10T22:49:57.886Z,79.52
2022-09-10T22:55:09.953Z,79.55
2022-09-10T23:00:18.015Z,79.54
2022-09-10T23:05:25.491Z,79.71
2022-09-10T23:10:31.486Z,79.68
2022-09-10T23:15:46.621Z,79.73
2022-09-10T23:20:54.157Z,79.87
2022-09-10T23:26:13.224Z,79.78
2022-09-10T23:31:25.698Z,80.02
2022-09-10T23:36:49.094Z,79.79
2022-09-10T23:42:10.904Z,79.99
2022-09-10T23:47:21.234Z,79.87
2022-09-10T23:52:48.918Z,79.80
2022-09-10T23:58:17.151Z,80.08
